sensor_id;sensor_type;location;lat;lon;timestamp;pressure;altitude;pressure_sealevel;temperature;humidity
81393;BME280;70850;45.750;15.996;2023-06-22T00:00:19;97794.31;;;25.39;53.92
81393;BME280;70850;45.750;15.996;2023-06-22T00:02:51;97789.66;;;25.39;53.90
81393;BME280;70850;45.750;15.996;2023-06-22T00:05:24;97794.31;;;25.39;53.87
81393;BME280;70850;45.750;15.996;2023-06-22T00:07:57;97786.53;;;25.37;53.98
81393;BME280;70850;45.750;15.996;2023-06-22T00:10:30;97786.53;;;25.37;53.85
81393;BME280;70850;45.750;15.996;2023-06-22T00:13:03;97782.25;;;25.36;53.84
81393;BME280;70850;45.750;15.996;2023-06-22T00:15:36;97786.16;;;25.35;53.93
81393;BME280;70850;45.750;15.996;2023-06-22T00:18:09;97788.09;;;25.35;53.92
81393;BME280;70850;45.750;15.996;2023-06-22T00:20:42;97784.56;;;25.34;53.96
81393;BME280;70850;45.750;15.996;2023-06-22T00:23:15;97787.28;;;25.34;53.91
81393;BME280;70850;45.750;15.996;2023-06-22T00:25:47;97791.16;;;25.33;54.02
81393;BME280;70850;45.750;15.996;2023-06-22T00:28:20;97782.22;;;25.33;53.92
81393;BME280;70850;45.750;15.996;2023-06-22T00:30:52;97789.63;;;25.32;54.11
81393;BME280;70850;45.750;15.996;2023-06-22T00:33:25;97786.91;;;25.32;54.00
81393;BME280;70850;45.750;15.996;2023-06-22T00:35:57;97781.44;;;25.32;53.87
81393;BME280;70850;45.750;15.996;2023-06-22T00:38:30;97787.25;;;25.31;54.01
81393;BME280;70850;45.750;15.996;2023-06-22T00:41:02;97788.44;;;25.30;54.12
81393;BME280;70850;45.750;15.996;2023-06-22T00:43:35;97779.47;;;25.29;54.04
81393;BME280;70850;45.750;15.996;2023-06-22T00:46:07;97776.75;;;25.29;54.10
81393;BME280;70850;45.750;15.996;2023-06-22T00:48:40;97774.03;;;25.29;54.20
81393;BME280;70850;45.750;15.996;2023-06-22T00:51:14;97783.34;;;25.28;54.07
81393;BME280;70850;45.750;15.996;2023-06-22T00:53:46;97777.91;;;25.28;53.98
81393;BME280;70850;45.750;15.996;2023-06-22T00:56:19;97779.06;;;25.27;53.94
81393;BME280;70850;45.750;15.996;2023-06-22T00:58:54;97770.13;;;25.27;53.99
81393;BME280;70850;45.750;15.996;2023-06-22T01:01:27;97761.94;;;25.27;53.94
81393;BME280;70850;45.750;15.996;2023-06-22T01:04:01;97763.09;;;25.26;53.96
81393;BME280;70850;45.750;15.996;2023-06-22T01:06:34;97759.97;;;25.24;54.12
81393;BME280;70850;45.750;15.996;2023-06-22T01:09:26;97768.94;;;25.24;54.34
81393;BME280;70850;45.750;15.996;2023-06-22T01:11:57;97768.94;;;25.24;54.37
81393;BME280;70850;45.750;15.996;2023-06-22T01:14:38;97759.19;;;25.23;54.24
81393;BME280;70850;45.750;15.996;2023-06-22T01:17:14;97756.47;;;25.23;54.33
81393;BME280;70850;45.750;15.996;2023-06-22T01:19:51;97763.84;;;25.23;54.48
81393;BME280;70850;45.750;15.996;2023-06-22T01:22:25;97765.03;;;25.22;54.41
81393;BME280;70850;45.750;15.996;2023-06-22T01:25:21;97775.91;;;25.22;53.83
81393;BME280;70850;45.750;15.996;2023-06-22T01:30:39;97768.91;;;25.21;54.36
81393;BME280;70850;45.750;15.996;2023-06-22T01:33:12;97770.81;;;25.20;54.36
81393;BME280;70850;45.750;15.996;2023-06-22T01:35:43;97767.31;;;25.20;54.13
81393;BME280;70850;45.750;15.996;2023-06-22T01:38:16;97772.75;;;25.20;54.19
81393;BME280;70850;45.750;15.996;2023-06-22T01:40:47;97768.50;;;25.19;54.23
81393;BME280;70850;45.750;15.996;2023-06-22T01:43:19;97763.03;;;25.19;54.12
81393;BME280;70850;45.750;15.996;2023-06-22T01:45:52;97770.44;;;25.18;54.25
81393;BME280;70850;45.750;15.996;2023-06-22T01:48:26;97762.63;;;25.17;54.15
81393;BME280;70850;45.750;15.996;2023-06-22T01:50:58;97774.69;;;25.16;54.12
81393;BME280;70850;45.750;15.996;2023-06-22T01:53:31;97777.03;;;25.17;54.16
81393;BME280;70850;45.750;15.996;2023-06-22T01:56:04;97772.75;;;25.16;54.05
81393;BME280;70850;45.750;15.996;2023-06-22T01:58:39;97768.44;;;25.15;54.32
81393;BME280;70850;45.750;15.996;2023-06-22T02:01:16;97765.72;;;25.15;54.24
81393;BME280;70850;45.750;15.996;2023-06-22T02:03:53;97763.00;;;25.15;54.13
81393;BME280;70850;45.750;15.996;2023-06-22T02:06:32;97775.03;;;25.14;54.37
81393;BME280;70850;45.750;15.996;2023-06-22T02:09:08;97771.56;;;25.14;54.07
81393;BME280;70850;45.750;15.996;2023-06-22T02:11:43;97774.28;;;25.14;54.40
81393;BME280;70850;45.750;15.996;2023-06-22T02:14:15;97770.78;;;25.13;54.18
81393;BME280;70850;45.750;15.996;2023-06-22T02:16:48;97772.72;;;25.13;54.03
81393;BME280;70850;45.750;15.996;2023-06-22T02:19:24;97771.91;;;25.12;54.16
81393;BME280;70850;45.750;15.996;2023-06-22T02:21:56;97772.72;;;25.13;54.28
81393;BME280;70850;45.750;15.996;2023-06-22T02:24:29;97783.97;;;25.11;54.44
81393;BME280;70850;45.750;15.996;2023-06-22T02:27:01;97778.50;;;25.11;54.25
81393;BME280;70850;45.750;15.996;2023-06-22T02:29:34;97785.13;;;25.10;54.19
81393;BME280;70850;45.750;15.996;2023-06-22T02:32:07;97797.56;;;25.11;54.27
81393;BME280;70850;45.750;15.996;2023-06-22T02:34:39;97795.22;;;25.10;54.39
81393;BME280;70850;45.750;15.996;2023-06-22T02:37:12;97792.50;;;25.10;54.18
81393;BME280;70850;45.750;15.996;2023-06-22T02:39:45;97786.28;;;25.09;54.24
81393;BME280;70850;45.750;15.996;2023-06-22T02:42:18;97790.94;;;25.09;54.19
81393;BME280;70850;45.750;15.996;2023-06-22T02:44:51;97794.84;;;25.08;54.27
81393;BME280;70850;45.750;15.996;2023-06-22T02:47:24;97791.72;;;25.09;54.39
81393;BME280;70850;45.750;15.996;2023-06-22T02:49:57;97785.88;;;25.07;54.29
81393;BME280;70850;45.750;15.996;2023-06-22T02:52:30;97801.81;;;25.09;54.30
81393;BME280;70850;45.750;15.996;2023-06-22T02:55:03;97798.69;;;25.07;54.22
81393;BME280;70850;45.750;15.996;2023-06-22T02:57:35;97803.00;;;25.08;54.29
81393;BME280;70850;45.750;15.996;2023-06-22T03:00:09;97800.63;;;25.06;54.26
81393;BME280;70850;45.750;15.996;2023-06-22T03:02:46;97803.34;;;25.06;54.20
81393;BME280;70850;45.750;15.996;2023-06-22T03:05:19;97804.94;;;25.07;54.16
81393;BME280;70850;45.750;15.996;2023-06-22T03:07:53;97798.69;;;25.07;54.31
81393;BME280;70850;45.750;15.996;2023-06-22T03:10:25;97797.91;;;25.06;54.12
81393;BME280;70850;45.750;15.996;2023-06-22T03:12:58;97788.19;;;25.05;54.09
81393;BME280;70850;45.750;15.996;2023-06-22T03:15:31;97794.78;;;25.04;54.02
81393;BME280;70850;45.750;15.996;2023-06-22T03:18:04;97798.31;;;25.05;54.40
81393;BME280;70850;45.750;15.996;2023-06-22T03:20:37;97791.28;;;25.04;54.32
81393;BME280;70850;45.750;15.996;2023-06-22T03:23:10;97796.72;;;25.04;54.39
81393;BME280;70850;45.750;15.996;2023-06-22T03:25:42;97800.63;;;25.03;54.07
81393;BME280;70850;45.750;15.996;2023-06-22T03:28:14;97802.16;;;25.04;54.16
81393;BME280;70850;45.750;15.996;2023-06-22T03:30:47;97810.34;;;25.04;54.24
81393;BME280;70850;45.750;15.996;2023-06-22T03:33:20;97801.81;;;25.05;54.13
81393;BME280;70850;45.750;15.996;2023-06-22T03:35:53;97788.19;;;25.05;54.03
81393;BME280;70850;45.750;15.996;2023-06-22T03:38:25;97792.47;;;25.06;54.42
81393;BME280;70850;45.750;15.996;2023-06-22T03:40:56;97790.91;;;25.05;53.90
81393;BME280;70850;45.750;15.996;2023-06-22T03:43:28;97802.22;;;25.07;54.26
81393;BME280;70850;45.750;15.996;2023-06-22T03:46:01;97806.50;;;25.08;54.00
81393;BME280;70850;45.750;15.996;2023-06-22T03:48:33;97804.53;;;25.09;54.10
81393;BME280;70850;45.750;15.996;2023-06-22T03:51:05;97806.13;;;25.10;53.94
81393;BME280;70850;45.750;15.996;2023-06-22T03:53:38;97794.84;;;25.11;53.86
81393;BME280;70850;45.750;15.996;2023-06-22T03:56:08;97799.16;;;25.12;53.80
81393;BME280;70850;45.750;15.996;2023-06-22T03:58:38;97806.16;;;25.13;53.81
81393;BME280;70850;45.750;15.996;2023-06-22T04:01:13;97801.13;;;25.15;53.88
81393;BME280;70850;45.750;15.996;2023-06-22T04:03:46;97795.28;;;25.17;53.90
81393;BME280;70850;45.750;15.996;2023-06-22T04:06:19;97802.72;;;25.20;53.93
81393;BME280;70850;45.750;15.996;2023-06-22T04:08:52;97805.06;;;25.21;53.69
81393;BME280;70850;45.750;15.996;2023-06-22T04:11:22;97807.41;;;25.23;53.90
81393;BME280;70850;45.750;15.996;2023-06-22T04:13:54;97799.25;;;25.23;53.87
81393;BME280;70850;45.750;15.996;2023-06-22T04:16:28;97800.81;;;25.24;53.98
81393;BME280;70850;45.750;15.996;2023-06-22T04:19:00;97785.63;;;25.23;53.72
81393;BME280;70850;45.750;15.996;2023-06-22T04:21:33;97791.47;;;25.25;54.00
81393;BME280;70850;45.750;15.996;2023-06-22T04:24:05;97796.56;;;25.26;54.01
81393;BME280;70850;45.750;15.996;2023-06-22T04:26:38;97792.69;;;25.27;53.83
81393;BME280;70850;45.750;15.996;2023-06-22T04:29:11;97797.38;;;25.30;53.71
81393;BME280;70850;45.750;15.996;2023-06-22T04:31:43;97791.56;;;25.32;53.74
81393;BME280;70850;45.750;15.996;2023-06-22T04:34:15;97802.50;;;25.35;53.79
81393;BME280;70850;45.750;15.996;2023-06-22T04:36:48;97794.31;;;25.39;53.50
81393;BME280;70850;45.750;15.996;2023-06-22T04:39:20;97797.88;;;25.43;53.46
81393;BME280;70850;45.750;15.996;2023-06-22T04:41:53;97799.88;;;25.50;53.49
81393;BME280;70850;45.750;15.996;2023-06-22T04:44:25;97791.41;;;25.58;53.06
81393;BME280;70850;45.750;15.996;2023-06-22T04:46:58;97784.44;;;25.64;52.97
81393;BME280;70850;45.750;15.996;2023-06-22T04:49:33;97791.13;;;25.74;52.88
81393;BME280;70850;45.750;15.996;2023-06-22T04:52:06;97789.25;;;25.81;52.40
81393;BME280;70850;45.750;15.996;2023-06-22T04:54:39;97792.00;;;25.88;52.27
81393;BME280;70850;45.750;15.996;2023-06-22T04:57:11;97788.13;;;25.89;52.23
81393;BME280;70850;45.750;15.996;2023-06-22T04:59:44;97785.78;;;25.84;52.59
81393;BME280;70850;45.750;15.996;2023-06-22T05:02:17;97782.22;;;25.80;52.70
81393;BME280;70850;45.750;15.996;2023-06-22T05:04:50;97780.25;;;25.77;52.74
81393;BME280;70850;45.750;15.996;2023-06-22T05:07:21;97778.31;;;25.78;52.74
81393;BME280;70850;45.750;15.996;2023-06-22T05:09:55;97775.56;;;25.74;52.80
81393;BME280;70850;45.750;15.996;2023-06-22T05:12:26;97780.66;;;25.76;52.89
81393;BME280;70850;45.750;15.996;2023-06-22T05:14:59;97779.06;;;25.75;52.87
81393;BME280;70850;45.750;15.996;2023-06-22T05:17:31;97776.34;;;25.75;52.86
81393;BME280;70850;45.750;15.996;2023-06-22T05:20:04;97772.88;;;25.78;52.83
81393;BME280;70850;45.750;15.996;2023-06-22T05:22:37;97774.03;;;25.77;52.90
81393;BME280;70850;45.750;15.996;2023-06-22T05:25:11;97770.53;;;25.80;52.84
81393;BME280;70850;45.750;15.996;2023-06-22T05:27:43;97768.25;;;25.82;53.00
81393;BME280;70850;45.750;15.996;2023-06-22T05:30:15;97769.00;;;25.82;52.56
81393;BME280;70850;45.750;15.996;2023-06-22T05:32:48;97764.72;;;25.85;52.82
81393;BME280;70850;45.750;15.996;2023-06-22T05:35:21;97764.72;;;25.85;52.65
81393;BME280;70850;45.750;15.996;2023-06-22T05:37:53;97770.22;;;25.88;52.73
81393;BME280;70850;45.750;15.996;2023-06-22T05:40:25;97771.78;;;25.89;52.68
81393;BME280;70850;45.750;15.996;2023-06-22T05:42:58;97778.41;;;25.92;52.62
81393;BME280;70850;45.750;15.996;2023-06-22T05:45:29;97771.38;;;25.91;52.67
81393;BME280;70850;45.750;15.996;2023-06-22T05:48:01;97770.19;;;25.85;53.05
81393;BME280;70850;45.750;15.996;2023-06-22T05:50:31;97767.44;;;25.85;53.33
81393;BME280;70850;45.750;15.996;2023-06-22T05:53:04;97767.41;;;25.78;53.45
81393;BME280;70850;45.750;15.996;2023-06-22T05:55:37;97766.59;;;25.74;53.99
81393;BME280;70850;45.750;15.996;2023-06-22T05:58:11;97771.22;;;25.63;54.33
81393;BME280;70850;45.750;15.996;2023-06-22T06:00:44;97766.91;;;25.62;54.40
81393;BME280;70850;45.750;15.996;2023-06-22T06:03:17;97759.94;;;25.64;54.04
81393;BME280;70850;45.750;15.996;2023-06-22T06:05:50;97763.44;;;25.65;54.15
81393;BME280;70850;45.750;15.996;2023-06-22T06:08:23;97765.41;;;25.68;53.99
81393;BME280;70850;45.750;15.996;2023-06-22T06:10:56;97756.84;;;25.69;53.95
81393;BME280;70850;45.750;15.996;2023-06-22T06:13:28;97763.03;;;25.66;54.02
81393;BME280;70850;45.750;15.996;2023-06-22T06:16:01;97759.94;;;25.64;54.16
81393;BME280;70850;45.750;15.996;2023-06-22T06:18:34;97766.56;;;25.67;53.97
81393;BME280;70850;45.750;15.996;2023-06-22T06:21:07;97761.91;;;25.67;53.97
81393;BME280;70850;45.750;15.996;2023-06-22T06:23:39;97766.19;;;25.68;53.94
81393;BME280;70850;45.750;15.996;2023-06-22T06:26:12;97754.50;;;25.68;54.02
81393;BME280;70850;45.750;15.996;2023-06-22T06:28:45;97751.03;;;25.71;54.20
81393;BME280;70850;45.750;15.996;2023-06-22T06:31:17;97747.13;;;25.68;54.34
81393;BME280;70850;45.750;15.996;2023-06-22T06:33:51;97742.03;;;25.67;54.10
81393;BME280;70850;45.750;15.996;2023-06-22T06:36:24;97743.22;;;25.69;54.25
81393;BME280;70850;45.750;15.996;2023-06-22T06:38:57;97739.72;;;25.69;54.44
81393;BME280;70850;45.750;15.996;2023-06-22T06:41:29;97734.69;;;25.71;54.48
81393;BME280;70850;45.750;15.996;2023-06-22T06:44:01;97742.84;;;25.74;54.45
81393;BME280;70850;45.750;15.996;2023-06-22T06:46:34;97740.56;;;25.76;54.45
81393;BME280;70850;45.750;15.996;2023-06-22T06:49:07;97740.94;;;25.78;54.48
81393;BME280;70850;45.750;15.996;2023-06-22T06:51:39;97735.47;;;25.75;54.58
81393;BME280;70850;45.750;15.996;2023-06-22T06:54:12;97729.63;;;25.73;54.61
81393;BME280;70850;45.750;15.996;2023-06-22T06:56:45;97732.38;;;25.76;54.76
81393;BME280;70850;45.750;15.996;2023-06-22T06:59:18;97733.56;;;25.82;54.50
81393;BME280;70850;45.750;15.996;2023-06-22T07:01:52;97726.59;;;25.88;54.53
81393;BME280;70850;45.750;15.996;2023-06-22T07:04:25;97727.00;;;25.90;54.55
81393;BME280;70850;45.750;15.996;2023-06-22T07:06:58;97720.78;;;25.93;54.48
81393;BME280;70850;45.750;15.996;2023-06-22T07:09:32;97724.69;;;25.96;54.36
81393;BME280;70850;45.750;15.996;2023-06-22T07:12:05;97729.38;;;25.99;54.46
81393;BME280;70850;45.750;15.996;2023-06-22T07:14:37;97722.78;;;26.00;54.21
81393;BME280;70850;45.750;15.996;2023-06-22T07:17:08;97722.38;;;26.01;54.21
81393;BME280;70850;45.750;15.996;2023-06-22T07:19:41;97720.44;;;26.02;54.23
81393;BME280;70850;45.750;15.996;2023-06-22T07:22:14;97720.81;;;26.04;54.04
81393;BME280;70850;45.750;15.996;2023-06-22T07:24:46;97724.38;;;26.08;54.55
81393;BME280;70850;45.750;15.996;2023-06-22T07:27:19;97713.47;;;26.08;54.17
81393;BME280;70850;45.750;15.996;2023-06-22T07:29:52;97717.72;;;26.09;54.13
81393;BME280;70850;45.750;15.996;2023-06-22T07:32:25;97723.22;;;26.13;54.22
81393;BME280;70850;45.750;15.996;2023-06-22T07:34:58;97721.31;;;26.13;54.07
81393;BME280;70850;45.750;15.996;2023-06-22T07:37:31;97707.66;;;26.13;54.04
81393;BME280;70850;45.750;15.996;2023-06-22T07:40:04;97715.44;;;26.15;53.95
81393;BME280;70850;45.750;15.996;2023-06-22T07:42:37;97722.47;;;26.16;54.05
81393;BME280;70850;45.750;15.996;2023-06-22T07:45:11;97720.94;;;26.18;53.88
81393;BME280;70850;45.750;15.996;2023-06-22T07:47:44;97715.88;;;26.20;54.07
81393;BME280;70850;45.750;15.996;2023-06-22T07:50:16;97722.09;;;26.21;54.06
81393;BME280;70850;45.750;15.996;2023-06-22T07:52:49;97715.50;;;26.22;54.00
81393;BME280;70850;45.750;15.996;2023-06-22T07:55:23;97713.16;;;26.24;53.94
81393;BME280;70850;45.750;15.996;2023-06-22T07:57:56;97717.81;;;26.23;53.96
81393;BME280;70850;45.750;15.996;2023-06-22T08:00:30;97711.59;;;26.26;53.86
81393;BME280;70850;45.750;15.996;2023-06-22T08:03:03;97714.34;;;26.26;53.96
81393;BME280;70850;45.750;15.996;2023-06-22T08:05:35;97711.59;;;26.26;53.80
81393;BME280;70850;45.750;15.996;2023-06-22T08:08:08;97708.91;;;26.30;53.92
81393;BME280;70850;45.750;15.996;2023-06-22T08:10:39;97713.56;;;26.29;54.16
81393;BME280;70850;45.750;15.996;2023-06-22T08:13:12;97711.22;;;26.31;54.01
81393;BME280;70850;45.750;15.996;2023-06-22T08:15:44;97703.84;;;26.32;53.99
81393;BME280;70850;45.750;15.996;2023-06-22T08:18:17;97708.94;;;26.33;53.94
81393;BME280;70850;45.750;15.996;2023-06-22T08:20:50;97707.38;;;26.36;53.93
81393;BME280;70850;45.750;15.996;2023-06-22T08:23:23;97701.91;;;26.36;54.02
81393;BME280;70850;45.750;15.996;2023-06-22T08:25:56;97693.31;;;26.34;54.04
81393;BME280;70850;45.750;15.996;2023-06-22T08:28:29;97695.69;;;26.35;54.02
81393;BME280;70850;45.750;15.996;2023-06-22T08:31:02;97697.22;;;26.36;53.92
81393;BME280;70850;45.750;15.996;2023-06-22T08:33:34;97694.13;;;26.38;54.09
81393;BME280;70850;45.750;15.996;2023-06-22T08:36:07;97696.84;;;26.38;53.86
81393;BME280;70850;45.750;15.996;2023-06-22T08:38:41;97690.63;;;26.41;53.96
81393;BME280;70850;45.750;15.996;2023-06-22T08:41:14;97691.78;;;26.40;53.91
81393;BME280;70850;45.750;15.996;2023-06-22T08:43:47;97700.75;;;26.40;53.97
81393;BME280;70850;45.750;15.996;2023-06-22T08:46:21;97691.00;;;26.43;53.80
81393;BME280;70850;45.750;15.996;2023-06-22T08:48:53;97689.88;;;26.44;54.00
81393;BME280;70850;45.750;15.996;2023-06-22T08:51:26;97690.63;;;26.44;53.71
81393;BME280;70850;45.750;15.996;2023-06-22T08:53:59;97687.53;;;26.46;53.61
81393;BME280;70850;45.750;15.996;2023-06-22T08:56:32;97685.56;;;26.46;53.77
81393;BME280;70850;45.750;15.996;2023-06-22T08:59:05;97690.63;;;26.44;53.40
81393;BME280;70850;45.750;15.996;2023-06-22T09:01:38;97682.84;;;26.46;53.28
81393;BME280;70850;45.750;15.996;2023-06-22T09:04:10;97680.88;;;26.40;53.25
81393;BME280;70850;45.750;15.996;2023-06-22T09:06:43;97682.03;;;26.42;53.22
81393;BME280;70850;45.750;15.996;2023-06-22T09:09:20;97688.69;;;26.41;52.93
81393;BME280;70850;45.750;15.996;2023-06-22T09:11:52;97682.44;;;26.41;53.02
81393;BME280;70850;45.750;15.996;2023-06-22T09:14:25;97682.84;;;26.46;53.01
81393;BME280;70850;45.750;15.996;2023-06-22T09:16:57;97671.94;;;26.46;52.89
81393;BME280;70850;45.750;15.996;2023-06-22T09:19:30;97676.22;;;26.47;53.08
81393;BME280;70850;45.750;15.996;2023-06-22T09:22:03;97678.56;;;26.49;52.85
81393;BME280;70850;45.750;15.996;2023-06-22T09:24:36;97668.03;;;26.44;52.97
81393;BME280;70850;45.750;15.996;2023-06-22T09:27:08;97680.88;;;26.43;53.13
81393;BME280;70850;45.750;15.996;2023-06-22T09:29:41;97683.22;;;26.41;53.22
81393;BME280;70850;45.750;15.996;2023-06-22T09:32:13;97668.81;;;26.41;53.08
81393;BME280;70850;45.750;15.996;2023-06-22T09:34:46;97682.44;;;26.41;52.96
81393;BME280;70850;45.750;15.996;2023-06-22T09:37:19;97671.91;;;26.43;53.25
81393;BME280;70850;45.750;15.996;2023-06-22T09:39:53;97665.69;;;26.46;53.13
81393;BME280;70850;45.750;15.996;2023-06-22T09:42:25;97661.81;;;26.47;52.58
81393;BME280;70850;45.750;15.996;2023-06-22T09:44:58;97661.81;;;26.47;53.31
81393;BME280;70850;45.750;15.996;2023-06-22T09:47:31;97665.72;;;26.49;53.04
81393;BME280;70850;45.750;15.996;2023-06-22T09:50:05;97662.97;;;26.46;53.22
81393;BME280;70850;45.750;15.996;2023-06-22T09:52:39;97654.00;;;26.38;53.67
81393;BME280;70850;45.750;15.996;2023-06-22T09:55:12;97659.44;;;26.38;53.48
81393;BME280;70850;45.750;15.996;2023-06-22T09:57:46;97659.47;;;26.45;53.53
81393;BME280;70850;45.750;15.996;2023-06-22T10:00:19;97655.56;;;26.46;53.22
81393;BME280;70850;45.750;15.996;2023-06-22T10:02:53;97655.16;;;26.44;53.08
81393;BME280;70850;45.750;15.996;2023-06-22T10:05:26;97656.34;;;26.43;53.42
81393;BME280;70850;45.750;15.996;2023-06-22T10:07:59;97650.09;;;26.43;53.41
81393;BME280;70850;45.750;15.996;2023-06-22T10:10:32;97648.53;;;26.42;53.53
81393;BME280;70850;45.750;15.996;2023-06-22T10:13:10;97644.25;;;26.41;53.64
81393;BME280;70850;45.750;15.996;2023-06-22T10:15:42;97647.75;;;26.45;53.41
81393;BME280;70850;45.750;15.996;2023-06-22T10:18:15;97642.72;;;26.47;53.70
81393;BME280;70850;45.750;15.996;2023-06-22T10:20:48;97643.09;;;26.49;53.33
81393;BME280;70850;45.750;15.996;2023-06-22T10:23:22;97647.78;;;26.48;53.83
81393;BME280;70850;45.750;15.996;2023-06-22T10:25:54;97636.47;;;26.46;53.62
81393;BME280;70850;45.750;15.996;2023-06-22T10:28:28;97637.25;;;26.47;53.69
81393;BME280;70850;45.750;15.996;2023-06-22T10:31:01;97636.06;;;26.44;53.86
81393;BME280;70850;45.750;15.996;2023-06-22T10:33:34;97636.47;;;26.46;53.66
81393;BME280;70850;45.750;15.996;2023-06-22T10:36:06;97636.84;;;26.48;53.80
81393;BME280;70850;45.750;15.996;2023-06-22T10:38:39;97631.78;;;26.50;53.71
81393;BME280;70850;45.750;15.996;2023-06-22T10:41:13;97635.31;;;26.51;53.65
81393;BME280;70850;45.750;15.996;2023-06-22T10:43:46;97630.22;;;26.53;53.63
81393;BME280;70850;45.750;15.996;2023-06-22T10:46:20;97631.00;;;26.53;53.52
81393;BME280;70850;45.750;15.996;2023-06-22T10:48:52;97627.91;;;26.51;53.60
81393;BME280;70850;45.750;15.996;2023-06-22T10:51:25;97629.06;;;26.47;53.65
81393;BME280;70850;45.750;15.996;2023-06-22T10:53:57;97624.38;;;26.47;54.09
81393;BME280;70850;45.750;15.996;2023-06-22T10:56:30;97621.66;;;26.47;54.47
81393;BME280;70850;45.750;15.996;2023-06-22T10:59:03;97618.53;;;26.45;54.11
81393;BME280;70850;45.750;15.996;2023-06-22T11:01:35;97608.03;;;26.44;54.22
81393;BME280;70850;45.750;15.996;2023-06-22T11:04:09;97606.06;;;26.44;54.41
81393;BME280;70850;45.750;15.996;2023-06-22T11:06:42;97604.91;;;26.45;54.30
81393;BME280;70850;45.750;15.996;2023-06-22T11:09:16;97613.47;;;26.44;54.53
81393;BME280;70850;45.750;15.996;2023-06-22T11:11:47;97605.28;;;26.44;54.52
81393;BME280;70850;45.750;15.996;2023-06-22T11:14:20;97596.31;;;26.40;54.71
81393;BME280;70850;45.750;15.996;2023-06-22T11:16:53;97604.13;;;26.41;54.42
81393;BME280;70850;45.750;15.996;2023-06-22T11:19:25;97594.78;;;26.39;54.35
81393;BME280;70850;45.750;15.996;2023-06-22T11:21:59;97590.84;;;26.36;54.60
81393;BME280;70850;45.750;15.996;2023-06-22T11:24:32;97593.97;;;26.38;54.61
81393;BME280;70850;45.750;15.996;2023-06-22T11:27:06;97590.47;;;26.34;54.73
81393;BME280;70850;45.750;15.996;2023-06-22T11:29:39;97589.69;;;26.37;54.51
81393;BME280;70850;45.750;15.996;2023-06-22T11:32:11;97593.59;;;26.33;54.79
